Seihou Maru — JD3992 — position and weather

sailwx.info

Track history (hours):
 
Tides and Currents Weather Stations Pressure Air Temp Water Temp Dewpoint Dewpoint Depression Visibility Wind Speed Wind Dir Waves Ship Positions

Seihou Maru

Last reported at 2017-Oct-17 07:50 UTC. Time now 2017-Oct-20 01:27 UTC.
Position N 35°32' E 139°55'.

Length 75 m; draft 4.6 m.

Type: Cargo ship. MMSI: 431007426.

Date/timePositionNaut miles runAvg speedWind from/ knotsBaromVisibWave heightAir tempDewpointWater temp
2017-Oct-17 07:50N 35°32' E 139°55'412.8
2017-Oct-17 07:30N 35°28' E 139°51'510.6
2017-Oct-17 07:00N 35°23' E 139°49'4 1.7
2017-Oct-17 04:41N 35°22' E 139°54'0 0.0
2017-Oct-17 04:23N 35°22' E 139°54'0 0.0
2017-Oct-17 01:46N 35°22' E 139°54'0 0.0
2017-Oct-17 01:24N 35°22' E 139°54'0 0.0
2017-Oct-17 00:47N 35°22' E 139°54'0 0.0
2017-Oct-17 00:28N 35°22' E 139°54'0 0.0
2017-Oct-16 23:57N 35°22' E 139°54'0 0.0
2017-Oct-16 23:29N 35°22' E 139°54'0 0.7
2017-Oct-16 22:48N 35°22' E 139°53'0 0.0
2017-Oct-16 22:30N 35°22' E 139°53'0 0.0
2017-Oct-16 22:00N 35°22' E 139°53'0 0.0
2017-Oct-16 20:07N 35°22' E 139°53'0 0.0
2017-Oct-16 19:55N 35°22' E 139°53'0 0.0
2017-Oct-16 19:30N 35°22' E 139°53'0 0.0
2017-Oct-16 19:00N 35°22' E 139°53'0 0.0
2017-Oct-16 18:30N 35°22' E 139°53'0 0.0
2017-Oct-16 17:04N 35°22' E 139°53'0 0.0
2017-Oct-16 16:41N 35°22' E 139°53'0 0.3
2017-Oct-16 16:30N 35°22' E 139°53'0 0.1
2017-Oct-16 16:00N 35°22' E 139°53'0 0.1
2017-Oct-16 15:30N 35°22' E 139°53'0 0.0
2017-Oct-16 15:00N 35°22' E 139°53'0 0.0
2017-Oct-16 13:30N 35°22' E 139°53'0 0.0
2017-Oct-16 12:56N 35°22' E 139°53'0 0.0
2017-Oct-16 12:05N 35°22' E 139°53'0 0.0
2017-Oct-16 11:37N 35°22' E 139°53'0 0.0
2017-Oct-16 11:26N 35°22' E 139°53'0 0.0
2017-Oct-16 10:59N 35°22' E 139°53'0 0.0
2017-Oct-16 10:17N 35°22' E 139°53'0 0.0
2017-Oct-16 09:58N 35°22' E 139°53'0 0.0
2017-Oct-16 09:30N 35°22' E 139°53'0 0.0
2017-Oct-16 08:53N 35°22' E 139°53'0 0.0
2017-Oct-16 08:29N 35°22' E 139°53'0 0.0
2017-Oct-16 07:53N 35°22' E 139°53'0 0.0
2017-Oct-16 07:30N 35°22' E 139°53'0 0.0
2017-Oct-16 06:56N 35°22' E 139°53'0 0.0
2017-Oct-16 06:29N 35°22' E 139°53'0 0.0
2017-Oct-16 05:40N 35°22' E 139°53'0 0.0
2017-Oct-16 05:30N 35°22' E 139°53'0 0.0
2017-Oct-16 04:59N 35°22' E 139°53'0 0.1
2017-Oct-16 04:30N 35°22' E 139°53'0 0.1
2017-Oct-16 04:00N 35°22' E 139°53'0 0.0
2017-Oct-16 03:19N 35°22' E 139°53'0 0.0
2017-Oct-16 02:59N 35°22' E 139°53'0 0.0
2017-Oct-16 02:19N 35°22' E 139°53'0 0.1
2017-Oct-16 01:57N 35°22' E 139°53'0 0.0
2017-Oct-16 01:27N 35°22' E 139°53'0 0.1
2017-Oct-16 01:00N 35°22' E 139°53'0 0.0
2017-Oct-16 00:20N 35°22' E 139°53'0 0.0
2017-Oct-16 00:00N 35°22' E 139°53'0 0.0
2017-Oct-15 23:26N 35°22' E 139°53'0 0.0
2017-Oct-15 21:34N 35°22' E 139°53'0 0.2
2017-Oct-15 21:30N 35°22' E 139°53'1 2.2
2017-Oct-15 21:00N 35°22' E 139°52'4 8.7
2017-Oct-15 20:30N 35°26' E 139°48'612.2
2017-Oct-15 19:59N 35°31' E 139°53'6 0.3
2017-Oct-14 21:54N 35°36' E 139°57'5 0.6
2017-Oct-14 14:33N 35°32' E 139°54'112.6
2017-Oct-14 14:29N 35°31' E 139°54'612.2
2017-Oct-14 14:00N 35°27' E 139°49'612.1
2017-Oct-14 13:30N 35°21' E 139°45'510.7
2017-Oct-14 13:00N 35°16' E 139°46'611.2
2017-Oct-14 12:30N 35°11' E 139°46'611.4
2017-Oct-14 12:00N 35°05' E 139°43'612.2
2017-Oct-14 11:30N 35°01' E 139°38'713.7
2017-Oct-14 11:00N 34°57' E 139°31'  
2017-Oct-10 07:07N 34°37' E 134°55'211.1
2017-Oct-10 06:56N 34°37' E 134°58'510.4
2017-Oct-10 06:28N 34°36' E 135°03'510.9
2017-Oct-10 05:59N 34°31' E 135°04'612.9
2017-Oct-10 05:30N 34°25' E 135°02'713.2
2017-Oct-10 04:56N 34°18' E 134°60'612.9
2017-Oct-10 04:28N 34°12' E 134°60'712.9
2017-Oct-10 03:58N 34°05' E 135°01'  
Track history (hours):
 
Tides and Currents Weather Stations Pressure Air Temp Water Temp Dewpoint Dewpoint Depression Visibility Wind Speed Wind Dir Waves Ship Positions

Seihou Maru

Last reported at 2017-Oct-17 07:50 UTC. Time now 2017-Oct-20 01:27 UTC.
Position N 35°32' E 139°55'.

Length 75 m; draft 4.6 m.

Type: Cargo ship. MMSI: 431007426.

Date/timePositionNaut miles runAvg speedWind from/ knotsBaromVisibWave heightAir tempDewpointWater temp
2017-Oct-17 07:50N 35°32' E 139°55'412.8
2017-Oct-17 07:30N 35°28' E 139°51'510.6
2017-Oct-17 07:00N 35°23' E 139°49'4 1.7
2017-Oct-17 04:41N 35°22' E 139°54'0 0.0
2017-Oct-17 04:23N 35°22' E 139°54'0 0.0
2017-Oct-17 01:46N 35°22' E 139°54'0 0.0
2017-Oct-17 01:24N 35°22' E 139°54'0 0.0
2017-Oct-17 00:47N 35°22' E 139°54'0 0.0
2017-Oct-17 00:28N 35°22' E 139°54'0 0.0
2017-Oct-16 23:57N 35°22' E 139°54'0 0.0
2017-Oct-16 23:29N 35°22' E 139°54'0 0.7
2017-Oct-16 22:48N 35°22' E 139°53'0 0.0
2017-Oct-16 22:30N 35°22' E 139°53'0 0.0
2017-Oct-16 22:00N 35°22' E 139°53'0 0.0
2017-Oct-16 20:07N 35°22' E 139°53'0 0.0
2017-Oct-16 19:55N 35°22' E 139°53'0 0.0
2017-Oct-16 19:30N 35°22' E 139°53'0 0.0
2017-Oct-16 19:00N 35°22' E 139°53'0 0.0
2017-Oct-16 18:30N 35°22' E 139°53'0 0.0
2017-Oct-16 17:04N 35°22' E 139°53'0 0.0
2017-Oct-16 16:41N 35°22' E 139°53'0 0.3
2017-Oct-16 16:30N 35°22' E 139°53'0 0.1
2017-Oct-16 16:00N 35°22' E 139°53'0 0.1
2017-Oct-16 15:30N 35°22' E 139°53'0 0.0
2017-Oct-16 15:00N 35°22' E 139°53'0 0.0
2017-Oct-16 13:30N 35°22' E 139°53'0 0.0
2017-Oct-16 12:56N 35°22' E 139°53'0 0.0
2017-Oct-16 12:05N 35°22' E 139°53'0 0.0
2017-Oct-16 11:37N 35°22' E 139°53'0 0.0
2017-Oct-16 11:26N 35°22' E 139°53'0 0.0
2017-Oct-16 10:59N 35°22' E 139°53'0 0.0
2017-Oct-16 10:17N 35°22' E 139°53'0 0.0
2017-Oct-16 09:58N 35°22' E 139°53'0 0.0
2017-Oct-16 09:30N 35°22' E 139°53'0 0.0
2017-Oct-16 08:53N 35°22' E 139°53'0 0.0
2017-Oct-16 08:29N 35°22' E 139°53'0 0.0
2017-Oct-16 07:53N 35°22' E 139°53'0 0.0
2017-Oct-16 07:30N 35°22' E 139°53'0 0.0
2017-Oct-16 06:56N 35°22' E 139°53'0 0.0
2017-Oct-16 06:29N 35°22' E 139°53'0 0.0
2017-Oct-16 05:40N 35°22' E 139°53'0 0.0
2017-Oct-16 05:30N 35°22' E 139°53'0 0.0
2017-Oct-16 04:59N 35°22' E 139°53'0 0.1
2017-Oct-16 04:30N 35°22' E 139°53'0 0.1
2017-Oct-16 04:00N 35°22' E 139°53'0 0.0
2017-Oct-16 03:19N 35°22' E 139°53'0 0.0
2017-Oct-16 02:59N 35°22' E 139°53'0 0.0
2017-Oct-16 02:19N 35°22' E 139°53'0 0.1
2017-Oct-16 01:57N 35°22' E 139°53'0 0.0
2017-Oct-16 01:27N 35°22' E 139°53'0 0.1
2017-Oct-16 01:00N 35°22' E 139°53'0 0.0
2017-Oct-16 00:20N 35°22' E 139°53'0 0.0
2017-Oct-16 00:00N 35°22' E 139°53'0 0.0
2017-Oct-15 23:26N 35°22' E 139°53'0 0.0
2017-Oct-15 21:34N 35°22' E 139°53'0 0.2
2017-Oct-15 21:30N 35°22' E 139°53'1 2.2
2017-Oct-15 21:00N 35°22' E 139°52'4 8.7
2017-Oct-15 20:30N 35°26' E 139°48'612.2
2017-Oct-15 19:59N 35°31' E 139°53'6 0.3
2017-Oct-14 21:54N 35°36' E 139°57'5 0.6
2017-Oct-14 14:33N 35°32' E 139°54'112.6
2017-Oct-14 14:29N 35°31' E 139°54'612.2
2017-Oct-14 14:00N 35°27' E 139°49'612.1
2017-Oct-14 13:30N 35°21' E 139°45'510.7
2017-Oct-14 13:00N 35°16' E 139°46'611.2
2017-Oct-14 12:30N 35°11' E 139°46'611.4
2017-Oct-14 12:00N 35°05' E 139°43'612.2
2017-Oct-14 11:30N 35°01' E 139°38'713.7
2017-Oct-14 11:00N 34°57' E 139°31'  
2017-Oct-10 07:07N 34°37' E 134°55'211.1
2017-Oct-10 06:56N 34°37' E 134°58'510.4
2017-Oct-10 06:28N 34°36' E 135°03'510.9
2017-Oct-10 05:59N 34°31' E 135°04'612.9
2017-Oct-10 05:30N 34°25' E 135°02'713.2
2017-Oct-10 04:56N 34°18' E 134°60'612.9
2017-Oct-10 04:28N 34°12' E 134°60'712.9
2017-Oct-10 03:58N 34°05' E 135°01'  

Dump ship's entire track history